ASX714 KMEM-KIAH
Flight info
| Callsign | ASX714 |
|---|---|
| Flight time | 1h 18m |
| Altitude | 32000 |
| Route | PIEPE6 IBUFY SQS AEX GESNR1 |
| Aircraft | A320/M-SDE3FGHIRWY/LB1 |
Departure
| Time | 2026-05-07 14:29 |
|---|---|
| Airport | Memphis International Airport (KMEM) |
Arrival
| Time | 2026-05-07 15:47 |
|---|---|
| Airport | George Bush Intercontinental Airport (KIAH) |
| Time | Latitude | Longitude | Altitude | Speed | Heading |
|---|---|---|---|---|---|
| 2026-05-07 14:12 | 35.04560 | -89.97925 | 311 ft | 0 kts | 225° |
| 2026-05-07 14:22 | 35.04566 | -89.97918 | 312 ft | 3 kts | 227° |
| 2026-05-07 14:22 | 35.04578 | -89.97900 | 312 ft | 3 kts | 240° |
| 2026-05-07 14:23 | 35.04586 | -89.97878 | 311 ft | 3 kts | 261° |
| 2026-05-07 14:23 | 35.04586 | -89.97856 | 311 ft | 3 kts | 297° |
| 2026-05-07 14:23 | 35.04577 | -89.97842 | 312 ft | 2 kts | 351° |
| 2026-05-07 14:23 | 35.04569 | -89.97841 | 311 ft | 1 kts | 359° |
| 2026-05-07 14:24 | 35.04568 | -89.97841 | 311 ft | 0 kts | 359° |
| 2026-05-07 14:26 | 35.04595 | -89.97841 | 313 ft | 7 kts | 4° |
| 2026-05-07 14:26 | 35.04632 | -89.97797 | 314 ft | 9 kts | 70° |
| 2026-05-07 14:26 | 35.04682 | -89.97743 | 313 ft | 11 kts | 18° |
| 2026-05-07 14:26 | 35.04765 | -89.97742 | 312 ft | 13 kts | 344° |
| 2026-05-07 14:27 | 35.04848 | -89.97742 | 314 ft | 12 kts | 22° |
| 2026-05-07 14:27 | 35.04868 | -89.97656 | 315 ft | 11 kts | 89° |
| 2026-05-07 14:27 | 35.04869 | -89.97569 | 315 ft | 10 kts | 89° |
| 2026-05-07 14:27 | 35.04871 | -89.97477 | 316 ft | 14 kts | 89° |
| 2026-05-07 14:28 | 35.04872 | -89.97367 | 322 ft | 10 kts | 89° |
| 2026-05-07 14:28 | 35.04867 | -89.97306 | 324 ft | 4 kts | 118° |
| 2026-05-07 14:28 | 35.04789 | -89.97293 | 324 ft | 33 kts | 178° |
| 2026-05-07 14:28 | 35.04255 | -89.97282 | 315 ft | 118 kts | 179° |
| 2026-05-07 14:29 | 35.03209 | -89.97248 | 372 ft | 176 kts | 179° |
| 2026-05-07 14:29 | 35.01941 | -89.97255 | 1049 ft | 189 kts | 179° |
| 2026-05-07 14:29 | 35.00627 | -89.97320 | 1979 ft | 189 kts | 179° |
| 2026-05-07 14:29 | 34.99288 | -89.97420 | 2626 ft | 199 kts | 181° |
| 2026-05-07 14:30 | 34.98338 | -89.97478 | 2831 ft | 213 kts | 178° |
| 2026-05-07 14:30 | 34.96773 | -89.97479 | 3095 ft | 237 kts | 177° |
| 2026-05-07 14:30 | 34.95040 | -89.97439 | 3411 ft | 261 kts | 176° |
| 2026-05-07 14:30 | 34.93164 | -89.97386 | 3944 ft | 275 kts | 178° |
| 2026-05-07 14:31 | 34.91250 | -89.97332 | 4750 ft | 279 kts | 179° |
| 2026-05-07 14:31 | 34.89295 | -89.97283 | 5590 ft | 282 kts | 180° |
| 2026-05-07 14:31 | 34.87329 | -89.97290 | 6432 ft | 283 kts | 187° |
| 2026-05-07 14:31 | 34.85359 | -89.97491 | 7206 ft | 286 kts | 189° |
| 2026-05-07 14:32 | 34.83357 | -89.97693 | 7992 ft | 289 kts | 190° |
| 2026-05-07 14:32 | 34.81349 | -89.97895 | 8766 ft | 291 kts | 191° |
| 2026-05-07 14:32 | 34.79315 | -89.98101 | 9559 ft | 294 kts | 192° |
| 2026-05-07 14:32 | 34.77292 | -89.98305 | 10300 ft | 296 kts | 193° |
| 2026-05-07 14:33 | 34.75170 | -89.98525 | 10572 ft | 318 kts | 193° |
| 2026-05-07 14:33 | 34.72885 | -89.98771 | 10684 ft | 341 kts | 192° |
| 2026-05-07 14:33 | 34.70453 | -89.99115 | 10814 ft | 359 kts | 197° |
| 2026-05-07 14:33 | 34.67987 | -89.99883 | 10940 ft | 372 kts | 205° |
| 2026-05-07 14:34 | 34.65515 | -90.00977 | 11286 ft | 382 kts | 207° |
| 2026-05-07 14:34 | 34.63005 | -90.02092 | 11866 ft | 385 kts | 207° |
| 2026-05-07 14:34 | 34.60515 | -90.03196 | 12496 ft | 387 kts | 207° |
| 2026-05-07 14:34 | 34.57974 | -90.04321 | 13139 ft | 388 kts | 207° |
| 2026-05-07 14:35 | 34.55427 | -90.05447 | 13783 ft | 390 kts | 207° |
| 2026-05-07 14:35 | 34.52874 | -90.06573 | 14353 ft | 391 kts | 207° |
| 2026-05-07 14:35 | 34.50309 | -90.07699 | 14944 ft | 391 kts | 208° |
| 2026-05-07 14:35 | 34.47770 | -90.08787 | 15518 ft | 393 kts | 205° |
| 2026-05-07 14:36 | 34.45067 | -90.09528 | 16033 ft | 403 kts | 197° |
| 2026-05-07 14:36 | 34.42267 | -90.09931 | 16572 ft | 405 kts | 196° |
| 2026-05-07 14:36 | 34.39456 | -90.10317 | 17109 ft | 405 kts | 196° |
| 2026-05-07 14:36 | 34.36642 | -90.10698 | 17632 ft | 406 kts | 196° |
| 2026-05-07 14:37 | 34.33842 | -90.11085 | 18148 ft | 405 kts | 196° |
| 2026-05-07 14:37 | 34.28253 | -90.11844 | 18956 ft | 408 kts | 196° |
| 2026-05-07 14:37 | 34.25419 | -90.12217 | 19295 ft | 410 kts | 196° |
| 2026-05-07 14:38 | 34.22573 | -90.12584 | 19618 ft | 413 kts | 196° |
| 2026-05-07 14:38 | 34.19706 | -90.12953 | 19878 ft | 415 kts | 196° |
| 2026-05-07 14:38 | 34.16822 | -90.13331 | 20172 ft | 418 kts | 196° |
| 2026-05-07 14:38 | 34.13915 | -90.13708 | 20471 ft | 420 kts | 196° |
| 2026-05-07 14:39 | 34.11038 | -90.14077 | 20755 ft | 422 kts | 196° |
| 2026-05-07 14:39 | 34.08108 | -90.14448 | 21031 ft | 424 kts | 196° |
| 2026-05-07 14:39 | 34.05165 | -90.14818 | 21321 ft | 426 kts | 196° |
| 2026-05-07 14:39 | 34.02202 | -90.15186 | 21584 ft | 428 kts | 196° |
| 2026-05-07 14:40 | 33.99225 | -90.15551 | 21854 ft | 430 kts | 196° |
| 2026-05-07 14:40 | 33.96235 | -90.15914 | 22120 ft | 432 kts | 196° |
| 2026-05-07 14:40 | 33.93238 | -90.16282 | 22298 ft | 435 kts | 196° |
| 2026-05-07 14:40 | 33.90218 | -90.16671 | 22520 ft | 437 kts | 196° |
| 2026-05-07 14:41 | 33.87185 | -90.17062 | 22752 ft | 439 kts | 196° |
| 2026-05-07 14:41 | 33.84134 | -90.17452 | 22991 ft | 441 kts | 196° |
| 2026-05-07 14:41 | 33.81110 | -90.17838 | 23212 ft | 443 kts | 196° |
| 2026-05-07 14:41 | 33.78037 | -90.18228 | 23451 ft | 444 kts | 196° |
| 2026-05-07 14:42 | 33.74950 | -90.18617 | 23672 ft | 446 kts | 196° |
| 2026-05-07 14:42 | 33.71855 | -90.19005 | 23867 ft | 447 kts | 196° |
| 2026-05-07 14:42 | 33.68753 | -90.19391 | 24046 ft | 448 kts | 196° |
| 2026-05-07 14:42 | 33.65621 | -90.19771 | 24146 ft | 452 kts | 196° |
| 2026-05-07 14:43 | 33.62490 | -90.20145 | 24282 ft | 454 kts | 196° |
| 2026-05-07 14:43 | 33.59345 | -90.20523 | 24448 ft | 455 kts | 196° |
| 2026-05-07 14:43 | 33.56231 | -90.20896 | 24691 ft | 453 kts | 196° |
| 2026-05-07 14:43 | 33.53098 | -90.21267 | 24945 ft | 452 kts | 196° |
| 2026-05-07 14:44 | 33.49968 | -90.21635 | 25206 ft | 451 kts | 196° |
| 2026-05-07 14:44 | 33.46849 | -90.21996 | 25469 ft | 450 kts | 196° |
| 2026-05-07 14:44 | 33.43736 | -90.22353 | 25741 ft | 448 kts | 196° |
| 2026-05-07 14:44 | 33.40633 | -90.22706 | 26015 ft | 447 kts | 196° |
| 2026-05-07 14:45 | 33.37630 | -90.23350 | 26291 ft | 429 kts | 208° |
| 2026-05-07 14:45 | 33.34971 | -90.24793 | 26557 ft | 410 kts | 221° |
| 2026-05-07 14:45 | 33.32807 | -90.26843 | 26827 ft | 398 kts | 230° |
| 2026-05-07 14:45 | 33.30788 | -90.29092 | 27106 ft | 397 kts | 230° |
| 2026-05-07 14:46 | 33.28767 | -90.31346 | 27389 ft | 396 kts | 230° |
| 2026-05-07 14:46 | 33.26758 | -90.33588 | 27682 ft | 394 kts | 230° |
| 2026-05-07 14:46 | 33.24756 | -90.35820 | 27973 ft | 393 kts | 230° |
| 2026-05-07 14:46 | 33.22755 | -90.38048 | 28271 ft | 392 kts | 230° |
| 2026-05-07 14:47 | 33.20763 | -90.40262 | 28584 ft | 390 kts | 229° |
| 2026-05-07 14:47 | 33.18776 | -90.42466 | 28907 ft | 389 kts | 229° |
| 2026-05-07 14:47 | 33.16794 | -90.44661 | 29227 ft | 387 kts | 229° |
| 2026-05-07 14:47 | 33.14826 | -90.46839 | 29482 ft | 387 kts | 230° |
| 2026-05-07 14:48 | 33.12844 | -90.49035 | 29651 ft | 389 kts | 230° |
| 2026-05-07 14:48 | 33.10861 | -90.51231 | 29897 ft | 389 kts | 229° |
| 2026-05-07 14:48 | 33.08898 | -90.53396 | 30173 ft | 389 kts | 229° |
| 2026-05-07 14:48 | 33.06913 | -90.55583 | 30424 ft | 388 kts | 229° |
| 2026-05-07 14:49 | 33.04929 | -90.57766 | 30680 ft | 386 kts | 229° |
| 2026-05-07 14:49 | 33.02957 | -90.59938 | 30944 ft | 385 kts | 229° |
| 2026-05-07 14:49 | 33.00992 | -90.62105 | 31215 ft | 383 kts | 229° |
| 2026-05-07 14:49 | 32.99060 | -90.64236 | 31481 ft | 382 kts | 229° |
| 2026-05-07 14:50 | 32.97110 | -90.66387 | 31746 ft | 380 kts | 229° |
| 2026-05-07 14:50 | 32.95167 | -90.68526 | 32001 ft | 379 kts | 229° |
| 2026-05-07 14:50 | 32.91272 | -90.72811 | 32095 ft | 384 kts | 229° |
| 2026-05-07 14:51 | 32.87326 | -90.77141 | 32104 ft | 387 kts | 229° |
| 2026-05-07 14:51 | 32.83380 | -90.81480 | 32108 ft | 389 kts | 229° |
| 2026-05-07 14:52 | 32.79400 | -90.85838 | 32107 ft | 389 kts | 229° |
| 2026-05-07 14:52 | 32.75430 | -90.90170 | 32109 ft | 389 kts | 229° |
| 2026-05-07 14:53 | 32.71441 | -90.94524 | 32062 ft | 389 kts | 229° |
| 2026-05-07 14:53 | 32.67454 | -90.98878 | 32047 ft | 389 kts | 229° |
| 2026-05-07 14:54 | 32.63463 | -91.03232 | 32033 ft | 389 kts | 229° |
| 2026-05-07 14:54 | 32.59473 | -91.07571 | 31994 ft | 390 kts | 228° |
| 2026-05-07 14:55 | 32.55503 | -91.11889 | 32007 ft | 391 kts | 228° |
| 2026-05-07 14:55 | 32.51473 | -91.16258 | 32029 ft | 391 kts | 228° |
| 2026-05-07 14:56 | 32.47469 | -91.20586 | 32100 ft | 391 kts | 228° |
| 2026-05-07 14:56 | 32.43454 | -91.24929 | 32104 ft | 391 kts | 229° |
| 2026-05-07 14:57 | 32.39446 | -91.29276 | 32106 ft | 391 kts | 228° |
| 2026-05-07 14:57 | 32.35428 | -91.33614 | 32107 ft | 391 kts | 228° |
| 2026-05-07 14:58 | 32.31410 | -91.37949 | 32071 ft | 391 kts | 228° |
| 2026-05-07 14:58 | 32.27407 | -91.42260 | 32076 ft | 392 kts | 228° |
| 2026-05-07 14:59 | 32.23366 | -91.46614 | 32082 ft | 393 kts | 228° |
| 2026-05-07 14:59 | 32.19330 | -91.50952 | 32087 ft | 394 kts | 227° |
| 2026-05-07 15:00 | 32.15265 | -91.55305 | 32108 ft | 393 kts | 228° |
| 2026-05-07 15:00 | 32.11238 | -91.59619 | 32115 ft | 393 kts | 228° |
| 2026-05-07 15:01 | 32.07187 | -91.63961 | 32114 ft | 393 kts | 228° |
| 2026-05-07 15:01 | 32.03137 | -91.68289 | 32079 ft | 393 kts | 228° |
| 2026-05-07 15:02 | 31.99071 | -91.72625 | 32089 ft | 394 kts | 228° |
| 2026-05-07 15:02 | 31.95026 | -91.76944 | 32089 ft | 395 kts | 228° |
| 2026-05-07 15:03 | 31.90948 | -91.81291 | 32092 ft | 395 kts | 227° |
| 2026-05-07 15:03 | 31.86869 | -91.85633 | 32096 ft | 395 kts | 227° |
| 2026-05-07 15:04 | 31.82804 | -91.89960 | 32095 ft | 395 kts | 227° |
| 2026-05-07 15:04 | 31.78714 | -91.94294 | 32106 ft | 395 kts | 227° |
| 2026-05-07 15:05 | 31.74621 | -91.98627 | 32086 ft | 396 kts | 227° |
| 2026-05-07 15:05 | 31.70549 | -92.02936 | 32087 ft | 396 kts | 227° |
| 2026-05-07 15:06 | 31.66440 | -92.07276 | 32096 ft | 396 kts | 227° |
| 2026-05-07 15:06 | 31.62339 | -92.11608 | 32102 ft | 397 kts | 227° |
| 2026-05-07 15:07 | 31.58235 | -92.15939 | 32104 ft | 397 kts | 227° |
| 2026-05-07 15:07 | 31.54147 | -92.20243 | 32113 ft | 397 kts | 227° |
| 2026-05-07 15:08 | 31.50008 | -92.24595 | 32061 ft | 397 kts | 227° |
| 2026-05-07 15:08 | 31.45906 | -92.28905 | 32074 ft | 398 kts | 227° |
| 2026-05-07 15:09 | 31.41777 | -92.33242 | 32103 ft | 399 kts | 227° |
| 2026-05-07 15:09 | 31.37641 | -92.37577 | 32102 ft | 399 kts | 227° |
| 2026-05-07 15:10 | 31.33534 | -92.41881 | 32118 ft | 399 kts | 227° |
| 2026-05-07 15:10 | 31.29387 | -92.46215 | 32121 ft | 399 kts | 227° |
| 2026-05-07 15:11 | 31.25658 | -92.50917 | 32119 ft | 391 kts | 240° |
| 2026-05-07 15:11 | 31.23394 | -92.56610 | 32121 ft | 388 kts | 249° |
| 2026-05-07 15:12 | 31.21347 | -92.62470 | 32067 ft | 388 kts | 248° |
| 2026-05-07 15:12 | 31.19301 | -92.68284 | 32093 ft | 390 kts | 248° |
| 2026-05-07 15:13 | 31.17236 | -92.74148 | 32096 ft | 390 kts | 248° |
| 2026-05-07 15:13 | 31.15807 | -92.78214 | 32096 ft | 390 kts | 248° |
| 2026-05-07 15:14 | 31.13729 | -92.84089 | 32092 ft | 390 kts | 248° |
| 2026-05-07 15:14 | 31.11664 | -92.89921 | 32093 ft | 391 kts | 248° |
| 2026-05-07 15:15 | 31.09591 | -92.95782 | 32092 ft | 391 kts | 248° |
| 2026-05-07 15:15 | 31.07514 | -93.01652 | 32097 ft | 391 kts | 248° |
| 2026-05-07 15:16 | 31.05430 | -93.07522 | 32101 ft | 391 kts | 248° |
| 2026-05-07 15:16 | 31.03354 | -93.13349 | 32100 ft | 391 kts | 248° |
| 2026-05-07 15:17 | 31.01265 | -93.19221 | 32098 ft | 391 kts | 248° |
| 2026-05-07 15:17 | 30.99184 | -93.25050 | 32099 ft | 391 kts | 248° |
| 2026-05-07 15:18 | 30.97084 | -93.30916 | 32098 ft | 391 kts | 248° |
| 2026-05-07 15:18 | 30.95583 | -93.35099 | 32098 ft | 392 kts | 248° |
| 2026-05-07 15:19 | 30.93483 | -93.40953 | 32122 ft | 392 kts | 248° |
| 2026-05-07 15:19 | 30.91394 | -93.46775 | 32113 ft | 392 kts | 248° |
| 2026-05-07 15:20 | 30.89286 | -93.52645 | 32084 ft | 393 kts | 248° |
| 2026-05-07 15:20 | 30.87171 | -93.58525 | 32082 ft | 394 kts | 248° |
| 2026-05-07 15:21 | 30.85392 | -93.63454 | 32081 ft | 394 kts | 247° |
| 2026-05-07 15:21 | 30.83272 | -93.69300 | 32085 ft | 394 kts | 247° |
| 2026-05-07 15:22 | 30.81141 | -93.75186 | 32096 ft | 394 kts | 248° |
| 2026-05-07 15:22 | 30.80079 | -93.78119 | 31898 ft | 391 kts | 247° |
| 2026-05-07 15:22 | 30.79023 | -93.81034 | 30998 ft | 392 kts | 247° |
| 2026-05-07 15:23 | 30.77955 | -93.83976 | 29941 ft | 397 kts | 247° |
| 2026-05-07 15:23 | 30.76874 | -93.86950 | 28715 ft | 402 kts | 247° |
| 2026-05-07 15:23 | 30.75775 | -93.89962 | 27512 ft | 407 kts | 247° |
| 2026-05-07 15:23 | 30.74665 | -93.93002 | 26284 ft | 411 kts | 248° |
| 2026-05-07 15:24 | 30.73545 | -93.96075 | 25052 ft | 416 kts | 248° |
| 2026-05-07 15:24 | 30.72407 | -93.99201 | 23915 ft | 420 kts | 248° |
| 2026-05-07 15:24 | 30.71274 | -94.02303 | 23006 ft | 415 kts | 248° |
| 2026-05-07 15:24 | 30.70150 | -94.05373 | 22126 ft | 410 kts | 248° |
| 2026-05-07 15:25 | 30.69038 | -94.08409 | 21304 ft | 406 kts | 247° |
| 2026-05-07 15:25 | 30.67939 | -94.11409 | 20514 ft | 402 kts | 247° |
| 2026-05-07 15:25 | 30.66848 | -94.14385 | 19763 ft | 398 kts | 247° |
| 2026-05-07 15:25 | 30.65779 | -94.17297 | 19053 ft | 395 kts | 247° |
| 2026-05-07 15:26 | 30.64708 | -94.20215 | 18420 ft | 393 kts | 247° |
| 2026-05-07 15:26 | 30.63635 | -94.23141 | 18118 ft | 394 kts | 247° |
| 2026-05-07 15:26 | 30.62558 | -94.26074 | 17970 ft | 394 kts | 247° |
| 2026-05-07 15:26 | 30.61482 | -94.29005 | 18009 ft | 395 kts | 247° |
| 2026-05-07 15:27 | 30.60406 | -94.31931 | 18012 ft | 395 kts | 247° |
| 2026-05-07 15:27 | 30.59334 | -94.34841 | 18005 ft | 384 kts | 247° |
| 2026-05-07 15:27 | 30.58311 | -94.37610 | 18002 ft | 364 kts | 247° |
| 2026-05-07 15:27 | 30.57336 | -94.40242 | 18012 ft | 346 kts | 247° |
| 2026-05-07 15:28 | 30.56409 | -94.42742 | 18009 ft | 329 kts | 247° |
| 2026-05-07 15:28 | 30.55517 | -94.45148 | 18004 ft | 322 kts | 247° |
| 2026-05-07 15:28 | 30.54634 | -94.47529 | 18004 ft | 320 kts | 247° |
| 2026-05-07 15:28 | 30.53725 | -94.49882 | 18011 ft | 320 kts | 243° |
| 2026-05-07 15:29 | 30.52482 | -94.52026 | 18013 ft | 322 kts | 234° |
| 2026-05-07 15:29 | 30.51096 | -94.54051 | 17845 ft | 319 kts | 234° |
| 2026-05-07 15:29 | 30.49724 | -94.56058 | 17361 ft | 317 kts | 234° |
| 2026-05-07 15:29 | 30.48357 | -94.58061 | 16895 ft | 316 kts | 234° |
| 2026-05-07 15:30 | 30.46997 | -94.60056 | 16428 ft | 315 kts | 234° |
| 2026-05-07 15:30 | 30.45645 | -94.62044 | 15979 ft | 313 kts | 234° |
| 2026-05-07 15:30 | 30.44299 | -94.64019 | 15552 ft | 312 kts | 234° |
| 2026-05-07 15:30 | 30.42956 | -94.65986 | 15126 ft | 310 kts | 234° |
| 2026-05-07 15:31 | 30.41621 | -94.67939 | 14712 ft | 309 kts | 235° |
| 2026-05-07 15:31 | 30.40287 | -94.69890 | 14300 ft | 308 kts | 234° |
| 2026-05-07 15:31 | 30.38924 | -94.71801 | 13894 ft | 307 kts | 233° |
| 2026-05-07 15:31 | 30.37526 | -94.73660 | 13428 ft | 305 kts | 232° |
| 2026-05-07 15:32 | 30.36118 | -94.75492 | 12761 ft | 304 kts | 232° |
| 2026-05-07 15:32 | 30.34714 | -94.77314 | 12108 ft | 303 kts | 232° |
| 2026-05-07 15:32 | 30.33319 | -94.79132 | 11631 ft | 297 kts | 232° |
| 2026-05-07 15:32 | 30.31988 | -94.80864 | 11508 ft | 280 kts | 232° |
| 2026-05-07 15:33 | 30.30970 | -94.82194 | 11275 ft | 272 kts | 233° |
| 2026-05-07 15:33 | 30.29732 | -94.83827 | 10808 ft | 270 kts | 233° |
| 2026-05-07 15:33 | 30.28499 | -94.85459 | 10557 ft | 269 kts | 234° |
| 2026-05-07 15:33 | 30.27283 | -94.87114 | 10518 ft | 271 kts | 234° |
| 2026-05-07 15:34 | 30.26079 | -94.88794 | 10533 ft | 272 kts | 235° |
| 2026-05-07 15:34 | 30.24877 | -94.90478 | 10424 ft | 270 kts | 235° |
| 2026-05-07 15:34 | 30.23685 | -94.92147 | 10064 ft | 269 kts | 235° |
| 2026-05-07 15:34 | 30.22486 | -94.93816 | 9659 ft | 269 kts | 235° |
| 2026-05-07 15:35 | 30.21288 | -94.95478 | 9234 ft | 269 kts | 233° |
| 2026-05-07 15:35 | 30.20085 | -94.97142 | 8802 ft | 270 kts | 233° |
| 2026-05-07 15:35 | 30.18881 | -94.98813 | 8360 ft | 271 kts | 233° |
| 2026-05-07 15:35 | 30.17689 | -95.00468 | 7945 ft | 272 kts | 233° |
| 2026-05-07 15:36 | 30.16478 | -95.02144 | 7539 ft | 272 kts | 232° |
| 2026-05-07 15:36 | 30.15265 | -95.03820 | 7121 ft | 272 kts | 232° |
| 2026-05-07 15:36 | 30.14049 | -95.05496 | 6727 ft | 272 kts | 231° |
| 2026-05-07 15:36 | 30.12967 | -95.07231 | 6514 ft | 262 kts | 244° |
| 2026-05-07 15:37 | 30.12367 | -95.09184 | 6175 ft | 257 kts | 261° |
| 2026-05-07 15:37 | 30.12060 | -95.11207 | 6005 ft | 256 kts | 261° |
| 2026-05-07 15:37 | 30.11746 | -95.13226 | 6020 ft | 255 kts | 261° |
| 2026-05-07 15:37 | 30.11429 | -95.15239 | 5845 ft | 254 kts | 261° |
| 2026-05-07 15:38 | 30.11112 | -95.17250 | 5426 ft | 254 kts | 261° |
| 2026-05-07 15:38 | 30.10794 | -95.19256 | 5026 ft | 254 kts | 261° |
| 2026-05-07 15:38 | 30.10473 | -95.21264 | 4644 ft | 253 kts | 261° |
| 2026-05-07 15:38 | 30.10154 | -95.23260 | 4246 ft | 253 kts | 261° |
| 2026-05-07 15:39 | 30.09839 | -95.25245 | 4007 ft | 251 kts | 262° |
| 2026-05-07 15:39 | 30.09524 | -95.27231 | 3614 ft | 251 kts | 263° |
| 2026-05-07 15:39 | 30.09252 | -95.29170 | 3503 ft | 237 kts | 269° |
| 2026-05-07 15:39 | 30.09238 | -95.31023 | 3376 ft | 225 kts | 274° |
| 2026-05-07 15:40 | 30.09241 | -95.32770 | 3255 ft | 215 kts | 273° |
| 2026-05-07 15:40 | 30.09243 | -95.34486 | 3134 ft | 207 kts | 274° |
| 2026-05-07 15:40 | 30.09244 | -95.36102 | 3044 ft | 197 kts | 273° |
| 2026-05-07 15:40 | 30.09245 | -95.37671 | 3021 ft | 196 kts | 274° |
| 2026-05-07 15:41 | 30.09231 | -95.39214 | 3013 ft | 194 kts | 273° |
| 2026-05-07 15:41 | 30.09218 | -95.40770 | 2823 ft | 194 kts | 274° |
| 2026-05-07 15:41 | 30.09203 | -95.42338 | 2536 ft | 196 kts | 274° |
| 2026-05-07 15:41 | 30.09142 | -95.43911 | 2286 ft | 197 kts | 262° |
| 2026-05-07 15:42 | 30.08554 | -95.45326 | 2057 ft | 199 kts | 226° |
| 2026-05-07 15:42 | 30.07512 | -95.46383 | 2043 ft | 196 kts | 221° |
| 2026-05-07 15:42 | 30.06523 | -95.47374 | 1955 ft | 179 kts | 222° |
| 2026-05-07 15:42 | 30.05620 | -95.48288 | 2027 ft | 169 kts | 222° |
| 2026-05-07 15:43 | 30.04747 | -95.49175 | 2004 ft | 165 kts | 222° |
| 2026-05-07 15:43 | 30.03820 | -95.49939 | 2006 ft | 165 kts | 200° |
| 2026-05-07 15:43 | 30.02710 | -95.50123 | 2022 ft | 159 kts | 169° |
| 2026-05-07 15:43 | 30.01702 | -95.49695 | 2011 ft | 153 kts | 138° |
| 2026-05-07 15:44 | 30.00998 | -95.48819 | 2009 ft | 146 kts | 111° |
| 2026-05-07 15:44 | 30.00704 | -95.47742 | 1993 ft | 139 kts | 87° |
| 2026-05-07 15:44 | 30.00699 | -95.46636 | 1874 ft | 137 kts | 85° |
| 2026-05-07 15:44 | 30.00701 | -95.45532 | 1720 ft | 138 kts | 85° |
| 2026-05-07 15:45 | 30.00703 | -95.44437 | 1553 ft | 136 kts | 86° |
| 2026-05-07 15:45 | 30.00705 | -95.43347 | 1370 ft | 136 kts | 85° |
| 2026-05-07 15:45 | 30.00707 | -95.42257 | 1198 ft | 137 kts | 84° |
| 2026-05-07 15:45 | 30.00708 | -95.41156 | 1012 ft | 137 kts | 84° |
| 2026-05-07 15:46 | 30.00712 | -95.38916 | 662 ft | 142 kts | 84° |
| 2026-05-07 15:46 | 30.00706 | -95.37781 | 466 ft | 142 kts | 85° |
| 2026-05-07 15:46 | 30.00704 | -95.36628 | 254 ft | 145 kts | 83° |
| 2026-05-07 15:47 | 30.00716 | -95.35477 | 118 ft | 142 kts | 84° |
| 2026-05-07 15:47 | 30.00739 | -95.34484 | 98 ft | 92 kts | 89° |
| 2026-05-07 15:47 | 30.00709 | -95.34068 | 100 ft | 32 kts | 109° |
| 2026-05-07 15:47 | 30.00635 | -95.33901 | 100 ft | 14 kts | 135° |
| 2026-05-07 15:48 | 30.00588 | -95.33892 | 100 ft | 0 kts | 192° |
| 2026-05-07 15:48 | 30.00581 | -95.33894 | 100 ft | 2 kts | 197° |
| 2026-05-07 15:48 | 30.00572 | -95.33900 | 100 ft | 1 kts | 207° |
| 2026-05-07 15:48 | 30.00570 | -95.33901 | 100 ft | 0 kts | 207° |
| 2026-05-07 15:49 | 30.00567 | -95.33903 | 100 ft | 4 kts | 210° |
| 2026-05-07 15:50 | 30.00555 | -95.33985 | 100 ft | 13 kts | 270° |
| 2026-05-07 15:50 | 30.00553 | -95.34105 | 100 ft | 16 kts | 269° |
| 2026-05-07 15:50 | 30.00553 | -95.34243 | 99 ft | 18 kts | 269° |
| 2026-05-07 15:50 | 30.00554 | -95.34396 | 99 ft | 20 kts | 271° |
| 2026-05-07 15:51 | 30.00554 | -95.34565 | 98 ft | 22 kts | 269° |
| 2026-05-07 15:51 | 30.00554 | -95.34738 | 97 ft | 22 kts | 269° |
| 2026-05-07 15:51 | 30.00554 | -95.34911 | 97 ft | 22 kts | 270° |
| 2026-05-07 15:51 | 30.00552 | -95.35079 | 96 ft | 22 kts | 269° |
| 2026-05-07 15:52 | 30.00553 | -95.35258 | 96 ft | 23 kts | 270° |
| 2026-05-07 15:52 | 30.00553 | -95.35442 | 95 ft | 23 kts | 270° |
| 2026-05-07 15:52 | 30.00531 | -95.35601 | 95 ft | 20 kts | 235° |
| 2026-05-07 15:52 | 30.00416 | -95.35655 | 97 ft | 18 kts | 182° |
| 2026-05-07 15:53 | 30.00296 | -95.35655 | 95 ft | 16 kts | 179° |
| 2026-05-07 15:53 | 30.00197 | -95.35615 | 95 ft | 15 kts | 141° |
| 2026-05-07 15:53 | 30.00124 | -95.35543 | 95 ft | 13 kts | 148° |
| 2026-05-07 15:53 | 30.00046 | -95.35502 | 97 ft | 13 kts | 162° |
| 2026-05-07 15:54 | 29.99952 | -95.35487 | 96 ft | 13 kts | 180° |
| 2026-05-07 15:54 | 29.99865 | -95.35487 | 96 ft | 12 kts | 179° |
| 2026-05-07 15:54 | 29.99777 | -95.35485 | 97 ft | 15 kts | 179° |
| 2026-05-07 15:54 | 29.99677 | -95.35487 | 96 ft | 14 kts | 181° |
| 2026-05-07 15:55 | 29.99583 | -95.35486 | 94 ft | 13 kts | 178° |
| 2026-05-07 15:55 | 29.99522 | -95.35436 | 97 ft | 11 kts | 102° |
| 2026-05-07 15:55 | 29.99521 | -95.35328 | 95 ft | 14 kts | 97° |
| 2026-05-07 15:55 | 29.99457 | -95.35277 | 98 ft | 12 kts | 178° |
| 2026-05-07 15:56 | 29.99377 | -95.35276 | 97 ft | 15 kts | 180° |
| 2026-05-07 15:56 | 29.99266 | -95.35275 | 95 ft | 15 kts | 179° |
| 2026-05-07 15:56 | 29.99175 | -95.35246 | 96 ft | 13 kts | 105° |
| 2026-05-07 15:56 | 29.99177 | -95.35148 | 95 ft | 11 kts | 87° |
| 2026-05-07 15:57 | 29.99168 | -95.35054 | 96 ft | 12 kts | 119° |
| 2026-05-07 15:57 | 29.99093 | -95.34976 | 99 ft | 17 kts | 103° |
| 2026-05-07 15:57 | 29.99091 | -95.34844 | 97 ft | 16 kts | 90° |
| 2026-05-07 15:57 | 29.99091 | -95.34722 | 96 ft | 14 kts | 90° |
| 2026-05-07 15:58 | 29.99090 | -95.34615 | 97 ft | 12 kts | 90° |
| 2026-05-07 15:58 | 29.99090 | -95.34509 | 97 ft | 13 kts | 90° |
| 2026-05-07 15:58 | 29.99089 | -95.34410 | 100 ft | 11 kts | 90° |
| 2026-05-07 15:58 | 29.99093 | -95.34326 | 98 ft | 10 kts | 88° |
| 2026-05-07 15:59 | 29.99073 | -95.34266 | 98 ft | 8 kts | 136° |
| 2026-05-07 15:59 | 29.99038 | -95.34229 | 98 ft | 6 kts | 138° |
| 2026-05-07 15:59 | 29.99011 | -95.34201 | 99 ft | 4 kts | 138° |
| 2026-05-07 15:59 | 29.98994 | -95.34183 | 99 ft | 2 kts | 138° |
| 2026-05-07 16:00 | 29.98993 | -95.34182 | 98 ft | 0 kts | 138° |
| 2026-05-07 16:00 | 29.98992 | -95.34182 | 98 ft | 0 kts | 138° |